sensor_id;sensor_type;location;lat;lon;timestamp;P1;durP1;ratioP1;P2;durP2;ratioP2
52946;SDS011;45776;40.400;17.260;2022-10-23T00:01:42;30.50;;;17.95;;
52946;SDS011;45776;40.400;17.260;2022-10-23T00:04:17;30.42;;;18.20;;
52946;SDS011;45776;40.400;17.260;2022-10-23T00:06:43;29.67;;;18.23;;
52946;SDS011;45776;40.400;17.260;2022-10-23T00:09:09;34.25;;;18.30;;
52946;SDS011;45776;40.400;17.260;2022-10-23T00:11:36;30.25;;;17.27;;
52946;SDS011;45776;40.400;17.260;2022-10-23T00:14:02;29.13;;;17.92;;
52946;SDS011;45776;40.400;17.260;2022-10-23T00:16:28;28.10;;;16.73;;
52946;SDS011;45776;40.400;17.260;2022-10-23T00:18:54;35.55;;;18.17;;
52946;SDS011;45776;40.400;17.260;2022-10-23T00:21:19;31.85;;;18.00;;
52946;SDS011;45776;40.400;17.260;2022-10-23T00:23:45;30.08;;;18.23;;
52946;SDS011;45776;40.400;17.260;2022-10-23T00:26:10;31.77;;;18.30;;
52946;SDS011;45776;40.400;17.260;2022-10-23T00:28:40;34.65;;;18.48;;
52946;SDS011;45776;40.400;17.260;2022-10-23T00:31:05;27.98;;;16.90;;
52946;SDS011;45776;40.400;17.260;2022-10-23T00:33:31;25.58;;;16.33;;
52946;SDS011;45776;40.400;17.260;2022-10-23T00:35:56;24.60;;;15.98;;
52946;SDS011;45776;40.400;17.260;2022-10-23T00:38:21;26.15;;;15.90;;
52946;SDS011;45776;40.400;17.260;2022-10-23T00:40:47;24.70;;;15.27;;
52946;SDS011;45776;40.400;17.260;2022-10-23T00:43:22;23.13;;;14.50;;
52946;SDS011;45776;40.400;17.260;2022-10-23T00:45:48;21.60;;;14.30;;
52946;SDS011;45776;40.400;17.260;2022-10-23T00:48:14;25.35;;;15.55;;
52946;SDS011;45776;40.400;17.260;2022-10-23T00:50:39;20.48;;;13.65;;
52946;SDS011;45776;40.400;17.260;2022-10-23T00:53:05;20.77;;;13.45;;
52946;SDS011;45776;40.400;17.260;2022-10-23T00:55:31;21.88;;;15.43;;
52946;SDS011;45776;40.400;17.260;2022-10-23T00:57:57;28.25;;;16.23;;
52946;SDS011;45776;40.400;17.260;2022-10-23T01:00:24;21.45;;;14.95;;
52946;SDS011;45776;40.400;17.260;2022-10-23T01:02:50;27.48;;;16.50;;
52946;SDS011;45776;40.400;17.260;2022-10-23T01:05:16;24.60;;;15.65;;
52946;SDS011;45776;40.400;17.260;2022-10-23T01:08:00;24.17;;;15.45;;
52946;SDS011;45776;40.400;17.260;2022-10-23T01:15:28;30.88;;;16.70;;
52946;SDS011;45776;40.400;17.260;2022-10-23T01:23:21;38.60;;;21.08;;
52946;SDS011;45776;40.400;17.260;2022-10-23T01:28:13;50.13;;;22.65;;
52946;SDS011;45776;40.400;17.260;2022-10-23T01:30:42;44.33;;;22.33;;
52946;SDS011;45776;40.400;17.260;2022-10-23T01:33:20;42.97;;;22.80;;
52946;SDS011;45776;40.400;17.260;2022-10-23T01:38:13;46.10;;;21.45;;
52946;SDS011;45776;40.400;17.260;2022-10-23T01:40:47;47.90;;;23.05;;
52946;SDS011;45776;40.400;17.260;2022-10-23T01:43:15;46.50;;;21.95;;
52946;SDS011;45776;40.400;17.260;2022-10-23T01:45:43;45.05;;;22.98;;
52946;SDS011;45776;40.400;17.260;2022-10-23T01:48:10;44.88;;;22.80;;
52946;SDS011;45776;40.400;17.260;2022-10-23T01:50:37;45.25;;;22.30;;
52946;SDS011;45776;40.400;17.260;2022-10-23T01:53:04;43.15;;;22.70;;
52946;SDS011;45776;40.400;17.260;2022-10-23T01:55:30;44.20;;;22.92;;
52946;SDS011;45776;40.400;17.260;2022-10-23T01:57:55;50.83;;;23.15;;
52946;SDS011;45776;40.400;17.260;2022-10-23T02:00:21;42.20;;;21.10;;
52946;SDS011;45776;40.400;17.260;2022-10-23T02:02:46;44.45;;;23.67;;
52946;SDS011;45776;40.400;17.260;2022-10-23T02:05:17;42.33;;;22.05;;
52946;SDS011;45776;40.400;17.260;2022-10-23T02:10:10;42.67;;;20.10;;
52946;SDS011;45776;40.400;17.260;2022-10-23T02:15:05;38.53;;;20.58;;
52946;SDS011;45776;40.400;17.260;2022-10-23T02:17:58;42.03;;;22.23;;
52946;SDS011;45776;40.400;17.260;2022-10-23T02:22:47;40.90;;;22.30;;
52946;SDS011;45776;40.400;17.260;2022-10-23T02:25:22;35.95;;;19.85;;
52946;SDS011;45776;40.400;17.260;2022-10-23T02:27:50;41.50;;;21.47;;
52946;SDS011;45776;40.400;17.260;2022-10-23T02:30:17;39.78;;;19.98;;
52946;SDS011;45776;40.400;17.260;2022-10-23T02:32:49;40.25;;;22.38;;
52946;SDS011;45776;40.400;17.260;2022-10-23T02:35:15;34.08;;;19.25;;
52946;SDS011;45776;40.400;17.260;2022-10-23T02:37:41;40.53;;;20.65;;
52946;SDS011;45776;40.400;17.260;2022-10-23T02:40:06;35.45;;;19.42;;
52946;SDS011;45776;40.400;17.260;2022-10-23T02:42:35;34.72;;;20.13;;
52946;SDS011;45776;40.400;17.260;2022-10-23T02:50:41;33.20;;;19.33;;
52946;SDS011;45776;40.400;17.260;2022-10-23T02:58:08;39.78;;;20.48;;
52946;SDS011;45776;40.400;17.260;2022-10-23T03:00:35;34.60;;;19.27;;
52946;SDS011;45776;40.400;17.260;2022-10-23T03:03:03;35.20;;;19.90;;
52946;SDS011;45776;40.400;17.260;2022-10-23T03:05:30;36.15;;;19.90;;
52946;SDS011;45776;40.400;17.260;2022-10-23T03:07:56;49.63;;;20.45;;
52946;SDS011;45776;40.400;17.260;2022-10-23T03:10:22;48.65;;;19.33;;
52946;SDS011;45776;40.400;17.260;2022-10-23T03:12:47;62.40;;;19.33;;
52946;SDS011;45776;40.400;17.260;2022-10-23T03:15:13;93.90;;;19.63;;
52946;SDS011;45776;40.400;17.260;2022-10-23T03:17:38;129.70;;;20.88;;
52946;SDS011;45776;40.400;17.260;2022-10-23T03:20:04;64.57;;;18.55;;
52946;SDS011;45776;40.400;17.260;2022-10-23T03:22:29;83.68;;;21.30;;
52946;SDS011;45776;40.400;17.260;2022-10-23T03:24:55;50.70;;;18.20;;
52946;SDS011;45776;40.400;17.260;2022-10-23T03:27:20;48.80;;;20.55;;
52946;SDS011;45776;40.400;17.260;2022-10-23T03:29:45;47.17;;;20.25;;
52946;SDS011;45776;40.400;17.260;2022-10-23T03:32:10;58.13;;;18.77;;
52946;SDS011;45776;40.400;17.260;2022-10-23T03:34:36;58.38;;;19.42;;
52946;SDS011;45776;40.400;17.260;2022-10-23T03:37:01;34.90;;;17.58;;
52946;SDS011;45776;40.400;17.260;2022-10-23T03:39:26;37.40;;;17.92;;
52946;SDS011;45776;40.400;17.260;2022-10-23T03:41:52;43.60;;;18.45;;
52946;SDS011;45776;40.400;17.260;2022-10-23T03:44:17;31.55;;;17.35;;
52946;SDS011;45776;40.400;17.260;2022-10-23T03:46:42;31.40;;;15.82;;
52946;SDS011;45776;40.400;17.260;2022-10-23T03:49:08;25.45;;;14.55;;
52946;SDS011;45776;40.400;17.260;2022-10-23T03:51:33;22.40;;;12.82;;
52946;SDS011;45776;40.400;17.260;2022-10-23T03:53:58;20.27;;;13.35;;
52946;SDS011;45776;40.400;17.260;2022-10-23T03:56:24;25.67;;;13.23;;
52946;SDS011;45776;40.400;17.260;2022-10-23T03:58:49;49.90;;;13.88;;
52946;SDS011;45776;40.400;17.260;2022-10-23T04:01:14;20.67;;;13.23;;
52946;SDS011;45776;40.400;17.260;2022-10-23T04:03:39;17.48;;;12.38;;
52946;SDS011;45776;40.400;17.260;2022-10-23T04:06:05;20.25;;;12.80;;
52946;SDS011;45776;40.400;17.260;2022-10-23T04:08:30;23.30;;;13.73;;
52946;SDS011;45776;40.400;17.260;2022-10-23T04:10:55;56.35;;;14.25;;
52946;SDS011;45776;40.400;17.260;2022-10-23T04:13:21;177.68;;;20.85;;
52946;SDS011;45776;40.400;17.260;2022-10-23T04:15:46;52.65;;;15.68;;
52946;SDS011;45776;40.400;17.260;2022-10-23T04:18:12;32.83;;;14.95;;
52946;SDS011;45776;40.400;17.260;2022-10-23T04:20:37;44.60;;;15.90;;
52946;SDS011;45776;40.400;17.260;2022-10-23T04:23:02;24.98;;;14.82;;
52946;SDS011;45776;40.400;17.260;2022-10-23T04:25:28;36.33;;;14.68;;
52946;SDS011;45776;40.400;17.260;2022-10-23T04:27:53;27.42;;;14.73;;
52946;SDS011;45776;40.400;17.260;2022-10-23T04:30:18;25.08;;;14.38;;
52946;SDS011;45776;40.400;17.260;2022-10-23T04:32:43;61.53;;;15.63;;
52946;SDS011;45776;40.400;17.260;2022-10-23T04:35:09;63.13;;;14.82;;
52946;SDS011;45776;40.400;17.260;2022-10-23T04:37:34;46.33;;;13.95;;
52946;SDS011;45776;40.400;17.260;2022-10-23T04:39:59;95.18;;;18.20;;
52946;SDS011;45776;40.400;17.260;2022-10-23T04:42:25;60.63;;;17.60;;
52946;SDS011;45776;40.400;17.260;2022-10-23T04:44:50;124.05;;;20.70;;
52946;SDS011;45776;40.400;17.260;2022-10-23T04:47:15;77.50;;;17.95;;
52946;SDS011;45776;40.400;17.260;2022-10-23T04:49:40;96.28;;;17.65;;
52946;SDS011;45776;40.400;17.260;2022-10-23T04:52:06;47.83;;;17.02;;
52946;SDS011;45776;40.400;17.260;2022-10-23T04:54:37;53.92;;;18.08;;
52946;SDS011;45776;40.400;17.260;2022-10-23T04:57:03;66.63;;;15.55;;
52946;SDS011;45776;40.400;17.260;2022-10-23T04:59:28;58.33;;;16.38;;
52946;SDS011;45776;40.400;17.260;2022-10-23T05:01:53;62.35;;;17.35;;
52946;SDS011;45776;40.400;17.260;2022-10-23T05:04:18;53.85;;;16.92;;
52946;SDS011;45776;40.400;17.260;2022-10-23T05:06:44;51.22;;;16.95;;
52946;SDS011;45776;40.400;17.260;2022-10-23T05:09:09;82.47;;;18.88;;
52946;SDS011;45776;40.400;17.260;2022-10-23T05:11:34;63.67;;;17.55;;
52946;SDS011;45776;40.400;17.260;2022-10-23T05:13:59;70.45;;;18.38;;
52946;SDS011;45776;40.400;17.260;2022-10-23T05:16:34;61.20;;;18.92;;
52946;SDS011;45776;40.400;17.260;2022-10-23T05:19:01;39.35;;;17.35;;
52946;SDS011;45776;40.400;17.260;2022-10-23T05:21:28;37.78;;;17.48;;
52946;SDS011;45776;40.400;17.260;2022-10-23T05:23:54;33.40;;;16.38;;
52946;SDS011;45776;40.400;17.260;2022-10-23T05:26:19;53.25;;;17.45;;
52946;SDS011;45776;40.400;17.260;2022-10-23T05:28:46;35.05;;;16.77;;
52946;SDS011;45776;40.400;17.260;2022-10-23T05:31:11;49.03;;;19.77;;
52946;SDS011;45776;40.400;17.260;2022-10-23T05:33:37;39.00;;;17.17;;
52946;SDS011;45776;40.400;17.260;2022-10-23T05:36:02;50.72;;;16.08;;
52946;SDS011;45776;40.400;17.260;2022-10-23T05:38:28;36.00;;;15.27;;
52946;SDS011;45776;40.400;17.260;2022-10-23T05:40:54;60.42;;;16.42;;
52946;SDS011;45776;40.400;17.260;2022-10-23T05:43:19;57.45;;;15.48;;
52946;SDS011;45776;40.400;17.260;2022-10-23T05:45:45;36.03;;;16.27;;
52946;SDS011;45776;40.400;17.260;2022-10-23T05:48:13;71.13;;;17.73;;
52946;SDS011;45776;40.400;17.260;2022-10-23T05:50:38;38.25;;;17.10;;
52946;SDS011;45776;40.400;17.260;2022-10-23T05:53:03;45.33;;;17.33;;
52946;SDS011;45776;40.400;17.260;2022-10-23T05:55:29;44.20;;;17.45;;
52946;SDS011;45776;40.400;17.260;2022-10-23T05:57:54;42.88;;;17.75;;
52946;SDS011;45776;40.400;17.260;2022-10-23T06:00:19;36.97;;;16.63;;
52946;SDS011;45776;40.400;17.260;2022-10-23T06:02:45;44.05;;;17.85;;
52946;SDS011;45776;40.400;17.260;2022-10-23T06:05:10;70.18;;;19.27;;
52946;SDS011;45776;40.400;17.260;2022-10-23T06:07:35;64.28;;;19.02;;
52946;SDS011;45776;40.400;17.260;2022-10-23T06:10:01;41.65;;;17.35;;
52946;SDS011;45776;40.400;17.260;2022-10-23T06:12:26;54.67;;;19.42;;
52946;SDS011;45776;40.400;17.260;2022-10-23T06:14:52;52.42;;;18.33;;
52946;SDS011;45776;40.400;17.260;2022-10-23T06:17:17;37.17;;;16.25;;
52946;SDS011;45776;40.400;17.260;2022-10-23T06:19:43;38.30;;;17.48;;
52946;SDS011;45776;40.400;17.260;2022-10-23T06:22:08;38.20;;;18.05;;
52946;SDS011;45776;40.400;17.260;2022-10-23T06:24:33;64.60;;;19.33;;
52946;SDS011;45776;40.400;17.260;2022-10-23T06:26:58;61.50;;;17.55;;
52946;SDS011;45776;40.400;17.260;2022-10-23T06:29:24;84.90;;;16.38;;
52946;SDS011;45776;40.400;17.260;2022-10-23T06:31:49;95.45;;;16.80;;
52946;SDS011;45776;40.400;17.260;2022-10-23T06:34:14;63.90;;;17.45;;
52946;SDS011;45776;40.400;17.260;2022-10-23T06:36:40;47.63;;;15.77;;
52946;SDS011;45776;40.400;17.260;2022-10-23T06:39:05;52.15;;;16.05;;
52946;SDS011;45776;40.400;17.260;2022-10-23T06:41:30;32.08;;;14.73;;
52946;SDS011;45776;40.400;17.260;2022-10-23T06:43:56;37.72;;;14.60;;
52946;SDS011;45776;40.400;17.260;2022-10-23T06:46:21;57.13;;;15.60;;
52946;SDS011;45776;40.400;17.260;2022-10-23T06:48:46;55.45;;;16.23;;
52946;SDS011;45776;40.400;17.260;2022-10-23T06:51:13;71.68;;;15.93;;
52946;SDS011;45776;40.400;17.260;2022-10-23T06:53:38;30.75;;;14.35;;
52946;SDS011;45776;40.400;17.260;2022-10-23T06:56:04;35.03;;;15.60;;
52946;SDS011;45776;40.400;17.260;2022-10-23T06:58:30;42.25;;;16.17;;
52946;SDS011;45776;40.400;17.260;2022-10-23T07:00:58;33.45;;;16.05;;
52946;SDS011;45776;40.400;17.260;2022-10-23T07:03:24;39.20;;;16.15;;
52946;SDS011;45776;40.400;17.260;2022-10-23T07:05:49;34.15;;;15.82;;
52946;SDS011;45776;40.400;17.260;2022-10-23T07:08:14;55.80;;;15.98;;
52946;SDS011;45776;40.400;17.260;2022-10-23T07:10:40;45.70;;;15.80;;
52946;SDS011;45776;40.400;17.260;2022-10-23T07:13:08;48.78;;;16.38;;
52946;SDS011;45776;40.400;17.260;2022-10-23T07:15:34;46.80;;;16.10;;
52946;SDS011;45776;40.400;17.260;2022-10-23T07:17:59;38.67;;;16.27;;
52946;SDS011;45776;40.400;17.260;2022-10-23T07:20:25;37.78;;;17.88;;
52946;SDS011;45776;40.400;17.260;2022-10-23T07:22:51;83.50;;;19.13;;
52946;SDS011;45776;40.400;17.260;2022-10-23T07:25:17;45.17;;;19.35;;
52946;SDS011;45776;40.400;17.260;2022-10-23T07:27:42;45.03;;;18.55;;
52946;SDS011;45776;40.400;17.260;2022-10-23T07:30:08;42.63;;;19.20;;
52946;SDS011;45776;40.400;17.260;2022-10-23T07:32:33;39.42;;;19.45;;
52946;SDS011;45776;40.400;17.260;2022-10-23T07:34:58;47.03;;;21.45;;
52946;SDS011;45776;40.400;17.260;2022-10-23T07:37:24;52.03;;;19.55;;
52946;SDS011;45776;40.400;17.260;2022-10-23T07:39:49;54.95;;;21.35;;
52946;SDS011;45776;40.400;17.260;2022-10-23T07:42:14;47.10;;;21.33;;
52946;SDS011;45776;40.400;17.260;2022-10-23T07:44:39;49.90;;;22.25;;
52946;SDS011;45776;40.400;17.260;2022-10-23T07:47:05;42.60;;;19.17;;
52946;SDS011;45776;40.400;17.260;2022-10-23T07:49:30;44.10;;;19.85;;
52946;SDS011;45776;40.400;17.260;2022-10-23T07:51:55;41.00;;;19.55;;
52946;SDS011;45776;40.400;17.260;2022-10-23T07:54:22;39.35;;;18.40;;
52946;SDS011;45776;40.400;17.260;2022-10-23T07:56:48;30.30;;;15.10;;
52946;SDS011;45776;40.400;17.260;2022-10-23T07:59:13;26.65;;;14.05;;
52946;SDS011;45776;40.400;17.260;2022-10-23T08:01:38;20.17;;;12.00;;
52946;SDS011;45776;40.400;17.260;2022-10-23T08:04:04;19.60;;;11.90;;
52946;SDS011;45776;40.400;17.260;2022-10-23T08:06:30;22.35;;;12.45;;
52946;SDS011;45776;40.400;17.260;2022-10-23T08:08:55;22.65;;;12.25;;
52946;SDS011;45776;40.400;17.260;2022-10-23T08:11:22;20.17;;;12.25;;
52946;SDS011;45776;40.400;17.260;2022-10-23T08:13:51;22.50;;;12.63;;
52946;SDS011;45776;40.400;17.260;2022-10-23T08:16:16;22.85;;;12.52;;
52946;SDS011;45776;40.400;17.260;2022-10-23T08:18:42;21.83;;;12.77;;
52946;SDS011;45776;40.400;17.260;2022-10-23T08:21:09;23.23;;;12.80;;
52946;SDS011;45776;40.400;17.260;2022-10-23T08:23:35;25.08;;;13.82;;
52946;SDS011;45776;40.400;17.260;2022-10-23T08:26:01;24.20;;;13.40;;
52946;SDS011;45776;40.400;17.260;2022-10-23T08:28:27;29.83;;;15.20;;
52946;SDS011;45776;40.400;17.260;2022-10-23T08:30:53;30.63;;;15.65;;
52946;SDS011;45776;40.400;17.260;2022-10-23T08:33:18;24.58;;;12.90;;
52946;SDS011;45776;40.400;17.260;2022-10-23T08:35:43;24.13;;;12.40;;
52946;SDS011;45776;40.400;17.260;2022-10-23T08:38:09;21.58;;;12.00;;
52946;SDS011;45776;40.400;17.260;2022-10-23T08:40:34;22.15;;;12.07;;
52946;SDS011;45776;40.400;17.260;2022-10-23T08:45:32;25.13;;;12.82;;
52946;SDS011;45776;40.400;17.260;2022-10-23T08:48:01;20.92;;;12.20;;
52946;SDS011;45776;40.400;17.260;2022-10-23T08:50:31;25.50;;;12.43;;
52946;SDS011;45776;40.400;17.260;2022-10-23T08:53:02;24.60;;;13.20;;
52946;SDS011;45776;40.400;17.260;2022-10-23T08:55:29;26.13;;;12.75;;
52946;SDS011;45776;40.400;17.260;2022-10-23T08:58:02;22.67;;;12.43;;
52946;SDS011;45776;40.400;17.260;2022-10-23T09:00:28;26.05;;;13.15;;
52946;SDS011;45776;40.400;17.260;2022-10-23T09:02:54;26.48;;;12.90;;
52946;SDS011;45776;40.400;17.260;2022-10-23T09:05:26;24.30;;;13.20;;
52946;SDS011;45776;40.400;17.260;2022-10-23T09:12:45;30.08;;;13.85;;
52946;SDS011;45776;40.400;17.260;2022-10-23T09:17:56;24.80;;;12.88;;
52946;SDS011;45776;40.400;17.260;2022-10-23T09:20:23;25.25;;;14.38;;
52946;SDS011;45776;40.400;17.260;2022-10-23T09:22:51;26.83;;;14.00;;
52946;SDS011;45776;40.400;17.260;2022-10-23T09:25:20;27.65;;;13.52;;
52946;SDS011;45776;40.400;17.260;2022-10-23T09:27:47;25.17;;;13.88;;
52946;SDS011;45776;40.400;17.260;2022-10-23T09:30:23;27.88;;;13.77;;
52946;SDS011;45776;40.400;17.260;2022-10-23T09:32:48;26.27;;;14.07;;
52946;SDS011;45776;40.400;17.260;2022-10-23T09:35:23;23.05;;;13.25;;
52946;SDS011;45776;40.400;17.260;2022-10-23T09:37:49;22.75;;;14.65;;
52946;SDS011;45776;40.400;17.260;2022-10-23T09:40:30;24.63;;;13.32;;
52946;SDS011;45776;40.400;17.260;2022-10-23T09:43:00;27.65;;;15.23;;
52946;SDS011;45776;40.400;17.260;2022-10-23T09:45:32;24.38;;;14.20;;
52946;SDS011;45776;40.400;17.260;2022-10-23T09:48:05;22.02;;;13.25;;
52946;SDS011;45776;40.400;17.260;2022-10-23T09:50:30;23.08;;;12.65;;
52946;SDS011;45776;40.400;17.260;2022-10-23T09:52:55;22.75;;;12.93;;
52946;SDS011;45776;40.400;17.260;2022-10-23T09:55:22;20.58;;;12.73;;
52946;SDS011;45776;40.400;17.260;2022-10-23T09:57:48;20.05;;;12.15;;
52946;SDS011;45776;40.400;17.260;2022-10-23T10:02:39;20.25;;;11.70;;
52946;SDS011;45776;40.400;17.260;2022-10-23T10:05:20;21.17;;;11.40;;
52946;SDS011;45776;40.400;17.260;2022-10-23T10:07:52;17.08;;;10.65;;
52946;SDS011;45776;40.400;17.260;2022-10-23T10:10:19;15.10;;;10.05;;
52946;SDS011;45776;40.400;17.260;2022-10-23T10:15:37;18.08;;;10.30;;
52946;SDS011;45776;40.400;17.260;2022-10-23T10:18:09;16.90;;;9.57;;
52946;SDS011;45776;40.400;17.260;2022-10-23T10:23:09;18.05;;;9.15;;
52946;SDS011;45776;40.400;17.260;2022-10-23T10:26:21;16.10;;;10.07;;
52946;SDS011;45776;40.400;17.260;2022-10-23T10:28:50;14.07;;;9.15;;
52946;SDS011;45776;40.400;17.260;2022-10-23T10:31:25;15.32;;;9.88;;
52946;SDS011;45776;40.400;17.260;2022-10-23T10:34:05;15.23;;;9.80;;
52946;SDS011;45776;40.400;17.260;2022-10-23T10:39:00;13.68;;;8.80;;
52946;SDS011;45776;40.400;17.260;2022-10-23T10:46:27;14.43;;;9.73;;
52946;SDS011;45776;40.400;17.260;2022-10-23T10:48:59;14.73;;;9.20;;
52946;SDS011;45776;40.400;17.260;2022-10-23T10:51:28;17.15;;;9.18;;
52946;SDS011;45776;40.400;17.260;2022-10-23T10:56:22;17.00;;;9.88;;
52946;SDS011;45776;40.400;17.260;2022-10-23T10:58:49;17.17;;;10.63;;
52946;SDS011;45776;40.400;17.260;2022-10-23T11:01:20;15.57;;;9.75;;
52946;SDS011;45776;40.400;17.260;2022-10-23T11:03:54;17.85;;;10.65;;
52946;SDS011;45776;40.400;17.260;2022-10-23T11:06:21;17.02;;;10.07;;
52946;SDS011;45776;40.400;17.260;2022-10-23T11:08:48;13.63;;;9.32;;
52946;SDS011;45776;40.400;17.260;2022-10-23T11:11:18;15.70;;;9.27;;
52946;SDS011;45776;40.400;17.260;2022-10-23T11:13:45;18.50;;;10.80;;
52946;SDS011;45776;40.400;17.260;2022-10-23T11:18:39;13.52;;;8.95;;
52946;SDS011;45776;40.400;17.260;2022-10-23T11:24:19;12.68;;;8.95;;
52946;SDS011;45776;40.400;17.260;2022-10-23T11:28:56;14.05;;;8.05;;
52946;SDS011;45776;40.400;17.260;2022-10-23T11:39:14;17.52;;;8.57;;
52946;SDS011;45776;40.400;17.260;2022-10-23T11:41:46;11.57;;;8.25;;
52946;SDS011;45776;40.400;17.260;2022-10-23T11:46:37;12.70;;;8.10;;
52946;SDS011;45776;40.400;17.260;2022-10-23T11:49:03;13.23;;;8.98;;
52946;SDS011;45776;40.400;17.260;2022-10-23T11:56:36;16.92;;;9.63;;
52946;SDS011;45776;40.400;17.260;2022-10-23T11:59:23;18.50;;;9.85;;
52946;SDS011;45776;40.400;17.260;2022-10-23T12:01:50;14.57;;;9.25;;
52946;SDS011;45776;40.400;17.260;2022-10-23T12:06:42;15.68;;;9.45;;
52946;SDS011;45776;40.400;17.260;2022-10-23T12:09:21;14.43;;;9.43;;
52946;SDS011;45776;40.400;17.260;2022-10-23T12:11:48;18.13;;;9.45;;
52946;SDS011;45776;40.400;17.260;2022-10-23T12:14:32;16.48;;;9.57;;
52946;SDS011;45776;40.400;17.260;2022-10-23T12:16:57;15.30;;;9.57;;
52946;SDS011;45776;40.400;17.260;2022-10-23T12:19:24;14.75;;;9.40;;
52946;SDS011;45776;40.400;17.260;2022-10-23T12:21:51;17.50;;;9.55;;
52946;SDS011;45776;40.400;17.260;2022-10-23T12:24:28;14.73;;;9.55;;
52946;SDS011;45776;40.400;17.260;2022-10-23T12:35:11;18.33;;;10.35;;
52946;SDS011;45776;40.400;17.260;2022-10-23T12:40:09;15.00;;;9.68;;
52946;SDS011;45776;40.400;17.260;2022-10-23T12:42:34;16.90;;;9.57;;
52946;SDS011;45776;40.400;17.260;2022-10-23T12:45:01;17.23;;;9.93;;
52946;SDS011;45776;40.400;17.260;2022-10-23T12:47:27;15.63;;;9.98;;
52946;SDS011;45776;40.400;17.260;2022-10-23T12:49:53;14.98;;;9.75;;
52946;SDS011;45776;40.400;17.260;2022-10-23T12:52:19;16.45;;;9.73;;
52946;SDS011;45776;40.400;17.260;2022-10-23T12:54:45;13.45;;;9.57;;
52946;SDS011;45776;40.400;17.260;2022-10-23T12:57:21;15.55;;;10.18;;
52946;SDS011;45776;40.400;17.260;2022-10-23T12:59:47;17.88;;;9.85;;
52946;SDS011;45776;40.400;17.260;2022-10-23T13:02:19;16.83;;;10.32;;
52946;SDS011;45776;40.400;17.260;2022-10-23T13:04:46;14.32;;;9.90;;
52946;SDS011;45776;40.400;17.260;2022-10-23T13:07:12;14.77;;;9.32;;
52946;SDS011;45776;40.400;17.260;2022-10-23T13:09:39;18.50;;;10.85;;
52946;SDS011;45776;40.400;17.260;2022-10-23T13:12:05;17.25;;;10.18;;
52946;SDS011;45776;40.400;17.260;2022-10-23T13:17:04;17.38;;;9.73;;
52946;SDS011;45776;40.400;17.260;2022-10-23T13:19:30;15.05;;;9.85;;
52946;SDS011;45776;40.400;17.260;2022-10-23T13:21:55;14.38;;;10.15;;
52946;SDS011;45776;40.400;17.260;2022-10-23T13:24:21;14.07;;;9.20;;
52946;SDS011;45776;40.400;17.260;2022-10-23T13:26:47;12.90;;;8.77;;
52946;SDS011;45776;40.400;17.260;2022-10-23T13:29:20;16.48;;;9.20;;
52946;SDS011;45776;40.400;17.260;2022-10-23T13:31:46;13.75;;;9.50;;
52946;SDS011;45776;40.400;17.260;2022-10-23T13:34:16;17.92;;;9.07;;
52946;SDS011;45776;40.400;17.260;2022-10-23T13:39:34;13.35;;;9.25;;
52946;SDS011;45776;40.400;17.260;2022-10-23T13:42:00;14.73;;;9.32;;
52946;SDS011;45776;40.400;17.260;2022-10-23T13:44:30;17.92;;;9.75;;
52946;SDS011;45776;40.400;17.260;2022-10-23T13:46:55;16.10;;;9.55;;
52946;SDS011;45776;40.400;17.260;2022-10-23T13:49:21;16.08;;;9.15;;
52946;SDS011;45776;40.400;17.260;2022-10-23T13:51:47;12.70;;;8.65;;
52946;SDS011;45776;40.400;17.260;2022-10-23T13:54:15;12.38;;;8.93;;
52946;SDS011;45776;40.400;17.260;2022-10-23T13:56:41;12.80;;;9.00;;
52946;SDS011;45776;40.400;17.260;2022-10-23T13:59:07;14.27;;;9.32;;
52946;SDS011;45776;40.400;17.260;2022-10-23T14:01:32;14.00;;;8.98;;
52946;SDS011;45776;40.400;17.260;2022-10-23T14:03:59;14.80;;;9.48;;
52946;SDS011;45776;40.400;17.260;2022-10-23T14:06:25;14.68;;;8.90;;
52946;SDS011;45776;40.400;17.260;2022-10-23T14:08:50;15.35;;;9.65;;
52946;SDS011;45776;40.400;17.260;2022-10-23T14:11:16;15.85;;;8.80;;
52946;SDS011;45776;40.400;17.260;2022-10-23T14:13:42;11.75;;;8.00;;
52946;SDS011;45776;40.400;17.260;2022-10-23T14:16:08;15.73;;;8.20;;
52946;SDS011;45776;40.400;17.260;2022-10-23T14:18:35;11.52;;;7.53;;
52946;SDS011;45776;40.400;17.260;2022-10-23T14:21:01;14.07;;;8.60;;
52946;SDS011;45776;40.400;17.260;2022-10-23T14:23:26;14.98;;;8.85;;
52946;SDS011;45776;40.400;17.260;2022-10-23T14:25:51;15.43;;;8.80;;
52946;SDS011;45776;40.400;17.260;2022-10-23T14:28:17;13.88;;;8.98;;
52946;SDS011;45776;40.400;17.260;2022-10-23T14:30:42;14.18;;;7.88;;
52946;SDS011;45776;40.400;17.260;2022-10-23T14:33:08;16.90;;;7.97;;
52946;SDS011;45776;40.400;17.260;2022-10-23T14:35:33;13.60;;;8.18;;
52946;SDS011;45776;40.400;17.260;2022-10-23T14:37:59;12.18;;;7.95;;
52946;SDS011;45776;40.400;17.260;2022-10-23T14:40:24;14.50;;;7.78;;
52946;SDS011;45776;40.400;17.260;2022-10-23T14:42:50;16.05;;;7.88;;
52946;SDS011;45776;40.400;17.260;2022-10-23T14:45:15;12.90;;;7.22;;
52946;SDS011;45776;40.400;17.260;2022-10-23T14:47:40;14.68;;;9.05;;
52946;SDS011;45776;40.400;17.260;2022-10-23T14:50:06;12.20;;;8.02;;
52946;SDS011;45776;40.400;17.260;2022-10-23T14:52:32;14.35;;;8.23;;
52946;SDS011;45776;40.400;17.260;2022-10-23T14:54:57;10.80;;;7.68;;
52946;SDS011;45776;40.400;17.260;2022-10-23T14:57:24;13.77;;;8.55;;
52946;SDS011;45776;40.400;17.260;2022-10-23T14:59:49;14.07;;;8.60;;
52946;SDS011;45776;40.400;17.260;2022-10-23T15:02:15;14.65;;;9.43;;
52946;SDS011;45776;40.400;17.260;2022-10-23T15:04:41;13.73;;;8.95;;
52946;SDS011;45776;40.400;17.260;2022-10-23T15:07:06;13.32;;;8.80;;
52946;SDS011;45776;40.400;17.260;2022-10-23T15:09:31;17.10;;;9.45;;
52946;SDS011;45776;40.400;17.260;2022-10-23T15:12:00;16.15;;;8.93;;
52946;SDS011;45776;40.400;17.260;2022-10-23T15:14:25;15.85;;;9.10;;
52946;SDS011;45776;40.400;17.260;2022-10-23T15:16:50;19.08;;;9.65;;
52946;SDS011;45776;40.400;17.260;2022-10-23T15:19:16;17.27;;;9.63;;
52946;SDS011;45776;40.400;17.260;2022-10-23T15:21:41;17.02;;;9.00;;
52946;SDS011;45776;40.400;17.260;2022-10-23T15:24:06;15.70;;;9.60;;
52946;SDS011;45776;40.400;17.260;2022-10-23T15:26:31;16.85;;;9.15;;
52946;SDS011;45776;40.400;17.260;2022-10-23T15:28:58;15.23;;;9.32;;
52946;SDS011;45776;40.400;17.260;2022-10-23T15:34:08;19.10;;;9.73;;
52946;SDS011;45776;40.400;17.260;2022-10-23T15:36:34;16.13;;;9.48;;
52946;SDS011;45776;40.400;17.260;2022-10-23T15:38:59;15.73;;;8.32;;
52946;SDS011;45776;40.400;17.260;2022-10-23T15:41:28;19.95;;;9.57;;
52946;SDS011;45776;40.400;17.260;2022-10-23T15:43:54;16.83;;;9.90;;
52946;SDS011;45776;40.400;17.260;2022-10-23T15:46:19;19.40;;;9.95;;
52946;SDS011;45776;40.400;17.260;2022-10-23T15:48:45;15.68;;;9.55;;
52946;SDS011;45776;40.400;17.260;2022-10-23T15:51:10;20.08;;;9.95;;
52946;SDS011;45776;40.400;17.260;2022-10-23T15:53:35;18.00;;;10.98;;
52946;SDS011;45776;40.400;17.260;2022-10-23T15:56:01;20.65;;;10.82;;
52946;SDS011;45776;40.400;17.260;2022-10-23T15:58:26;16.30;;;9.90;;